sensor_id;sensor_type;location;lat;lon;timestamp;P1;P2;P0
49343;PMS5003;35210;41.606;-87.602;2024-03-02T00:02:02;8.60;7.20;4.00
49343;PMS5003;35210;41.606;-87.602;2024-03-02T00:04:32;6.60;6.60;5.00
49343;PMS5003;35210;41.606;-87.602;2024-03-02T00:07:02;7.20;6.00;4.60
49343;PMS5003;35210;41.606;-87.602;2024-03-02T00:09:30;6.20;4.60;4.00
49343;PMS5003;35210;41.606;-87.602;2024-03-02T00:11:58;12.60;8.00;4.20
49343;PMS5003;35210;41.606;-87.602;2024-03-02T00:14:28;8.00;7.80;6.20
49343;PMS5003;35210;41.606;-87.602;2024-03-02T00:16:57;8.80;8.00;6.60
49343;PMS5003;35210;41.606;-87.602;2024-03-02T00:19:26;10.20;9.00;7.20
49343;PMS5003;35210;41.606;-87.602;2024-03-02T00:21:54;9.00;6.20;4.60
49343;PMS5003;35210;41.606;-87.602;2024-03-02T00:24:26;10.80;8.60;7.00
49343;PMS5003;35210;41.606;-87.602;2024-03-02T00:26:59;4.80;4.00;3.00
49343;PMS5003;35210;41.606;-87.602;2024-03-02T00:29:27;11.40;8.00;5.40
49343;PMS5003;35210;41.606;-87.602;2024-03-02T00:31:56;8.80;7.60;4.60
49343;PMS5003;35210;41.606;-87.602;2024-03-02T00:34:25;9.40;8.00;5.00
49343;PMS5003;35210;41.606;-87.602;2024-03-02T00:36:53;10.20;7.80;4.40
49343;PMS5003;35210;41.606;-87.602;2024-03-02T00:39:26;9.60;8.40;5.40
49343;PMS5003;35210;41.606;-87.602;2024-03-02T00:41:55;9.60;8.40;5.00
49343;PMS5003;35210;41.606;-87.602;2024-03-02T00:44:23;9.00;8.00;5.20
49343;PMS5003;35210;41.606;-87.602;2024-03-02T00:46:56;8.00;8.00;7.00
49343;PMS5003;35210;41.606;-87.602;2024-03-02T00:49:26;8.80;6.20;3.20
49343;PMS5003;35210;41.606;-87.602;2024-03-02T00:51:55;13.20;9.00;5.00
49343;PMS5003;35210;41.606;-87.602;2024-03-02T00:54:25;3.60;3.20;2.00
49343;PMS5003;35210;41.606;-87.602;2024-03-02T00:56:55;9.00;8.60;5.40
49343;PMS5003;35210;41.606;-87.602;2024-03-02T00:59:24;13.00;8.00;4.20
49343;PMS5003;35210;41.606;-87.602;2024-03-02T01:01:52;8.60;7.80;5.00
49343;PMS5003;35210;41.606;-87.602;2024-03-02T01:04:20;8.40;7.20;4.00
49343;PMS5003;35210;41.606;-87.602;2024-03-02T01:06:48;7.60;5.00;3.00
49343;PMS5003;35210;41.606;-87.602;2024-03-02T01:09:20;4.60;4.60;3.60
49343;PMS5003;35210;41.606;-87.602;2024-03-02T01:11:49;8.20;8.00;4.00
49343;PMS5003;35210;41.606;-87.602;2024-03-02T01:14:18;7.60;6.60;3.80
49343;PMS5003;35210;41.606;-87.602;2024-03-02T01:16:46;9.80;4.80;3.00
49343;PMS5003;35210;41.606;-87.602;2024-03-02T01:19:14;7.00;7.00;4.40
49343;PMS5003;35210;41.606;-87.602;2024-03-02T01:21:42;7.60;5.00;4.00
49343;PMS5003;35210;41.606;-87.602;2024-03-02T01:24:11;7.00;7.00;5.60
49343;PMS5003;35210;41.606;-87.602;2024-03-02T01:26:40;12.20;10.40;6.80
49343;PMS5003;35210;41.606;-87.602;2024-03-02T01:29:09;6.20;4.60;4.00
49343;PMS5003;35210;41.606;-87.602;2024-03-02T01:31:38;9.80;7.00;5.80
49343;PMS5003;35210;41.606;-87.602;2024-03-02T01:34:10;8.80;6.40;6.00
49343;PMS5003;35210;41.606;-87.602;2024-03-02T01:36:39;14.00;9.60;7.00
49343;PMS5003;35210;41.606;-87.602;2024-03-02T01:39:07;8.00;7.40;6.60
49343;PMS5003;35210;41.606;-87.602;2024-03-02T01:41:35;13.20;11.20;8.00
49343;PMS5003;35210;41.606;-87.602;2024-03-02T01:44:04;10.80;10.20;7.80
49343;PMS5003;35210;41.606;-87.602;2024-03-02T01:46:34;17.60;11.00;9.00
49343;PMS5003;35210;41.606;-87.602;2024-03-02T01:49:02;11.20;9.20;7.60
49343;PMS5003;35210;41.606;-87.602;2024-03-02T01:51:31;12.20;10.00;8.00
49343;PMS5003;35210;41.606;-87.602;2024-03-02T01:53:59;10.20;10.20;7.60
49343;PMS5003;35210;41.606;-87.602;2024-03-02T01:56:27;9.00;9.00;7.00
49343;PMS5003;35210;41.606;-87.602;2024-03-02T01:58:55;12.00;11.20;8.00
49343;PMS5003;35210;41.606;-87.602;2024-03-02T02:01:23;17.20;13.80;9.00
49343;PMS5003;35210;41.606;-87.602;2024-03-02T02:03:54;14.40;13.80;9.20
49343;PMS5003;35210;41.606;-87.602;2024-03-02T02:06:22;11.40;10.00;7.40
49343;PMS5003;35210;41.606;-87.602;2024-03-02T02:08:50;10.00;9.80;6.80
49343;PMS5003;35210;41.606;-87.602;2024-03-02T02:11:19;9.20;9.00;7.00
49343;PMS5003;35210;41.606;-87.602;2024-03-02T02:13:47;10.80;9.00;8.00
49343;PMS5003;35210;41.606;-87.602;2024-03-02T02:16:15;13.00;9.60;7.20
49343;PMS5003;35210;41.606;-87.602;2024-03-02T02:18:44;9.80;8.80;6.60
49343;PMS5003;35210;41.606;-87.602;2024-03-02T02:21:13;9.20;9.20;7.00
49343;PMS5003;35210;41.606;-87.602;2024-03-02T02:23:43;8.20;8.20;6.00
49343;PMS5003;35210;41.606;-87.602;2024-03-02T02:26:13;9.00;9.00;6.40
49343;PMS5003;35210;41.606;-87.602;2024-03-02T02:28:41;9.80;9.60;7.00
49343;PMS5003;35210;41.606;-87.602;2024-03-02T02:31:12;8.00;8.00;5.80
49343;PMS5003;35210;41.606;-87.602;2024-03-02T02:33:42;15.40;11.60;7.60
49343;PMS5003;35210;41.606;-87.602;2024-03-02T02:36:10;8.00;5.80;3.40
49343;PMS5003;35210;41.606;-87.602;2024-03-02T02:38:40;10.60;9.00;4.40
49343;PMS5003;35210;41.606;-87.602;2024-03-02T02:41:16;8.60;8.40;6.60
49343;PMS5003;35210;41.606;-87.602;2024-03-02T02:43:45;5.20;5.20;5.00
49343;PMS5003;35210;41.606;-87.602;2024-03-02T02:46:15;10.60;8.00;4.40
49343;PMS5003;35210;41.606;-87.602;2024-03-02T02:48:43;8.80;7.20;6.00
49343;PMS5003;35210;41.606;-87.602;2024-03-02T02:51:11;8.60;6.60;5.20
49343;PMS5003;35210;41.606;-87.602;2024-03-02T02:53:39;7.60;7.00;6.00
49343;PMS5003;35210;41.606;-87.602;2024-03-02T02:56:09;7.40;5.80;2.80
49343;PMS5003;35210;41.606;-87.602;2024-03-02T02:58:37;7.40;7.00;3.00
49343;PMS5003;35210;41.606;-87.602;2024-03-02T03:01:07;11.20;7.80;4.00
49343;PMS5003;35210;41.606;-87.602;2024-03-02T03:03:35;8.60;8.00;6.40
49343;PMS5003;35210;41.606;-87.602;2024-03-02T03:06:03;9.60;7.00;4.60
49343;PMS5003;35210;41.606;-87.602;2024-03-02T03:08:31;15.60;10.80;7.60
49343;PMS5003;35210;41.606;-87.602;2024-03-02T03:10:59;10.20;8.40;6.80
49343;PMS5003;35210;41.606;-87.602;2024-03-02T03:13:29;12.20;9.00;7.60
49343;PMS5003;35210;41.606;-87.602;2024-03-02T03:15:57;9.60;8.60;4.00
49343;PMS5003;35210;41.606;-87.602;2024-03-02T03:18:25;10.00;8.00;6.40
49343;PMS5003;35210;41.606;-87.602;2024-03-02T03:20:53;8.20;7.80;4.80
49343;PMS5003;35210;41.606;-87.602;2024-03-02T03:23:21;9.60;7.20;4.40
49343;PMS5003;35210;41.606;-87.602;2024-03-02T03:25:51;8.60;7.40;3.80
49343;PMS5003;35210;41.606;-87.602;2024-03-02T03:28:19;3.00;3.00;3.00
49343;PMS5003;35210;41.606;-87.602;2024-03-02T03:30:49;7.80;6.20;4.20
49343;PMS5003;35210;41.606;-87.602;2024-03-02T03:33:17;7.80;5.20;4.00
49343;PMS5003;35210;41.606;-87.602;2024-03-02T03:35:45;9.80;5.80;3.40
49343;PMS5003;35210;41.606;-87.602;2024-03-02T03:38:13;4.00;4.00;1.80
49343;PMS5003;35210;41.606;-87.602;2024-03-02T03:40:41;7.00;4.40;3.00
49343;PMS5003;35210;41.606;-87.602;2024-03-02T03:43:10;7.00;5.60;4.00
49343;PMS5003;35210;41.606;-87.602;2024-03-02T03:45:38;7.00;7.00;3.80
49343;PMS5003;35210;41.606;-87.602;2024-03-02T03:48:08;7.40;6.00;3.40
49343;PMS5003;35210;41.606;-87.602;2024-03-02T03:50:36;6.40;3.40;3.00
49343;PMS5003;35210;41.606;-87.602;2024-03-02T03:53:04;7.80;6.00;3.80
49343;PMS5003;35210;41.606;-87.602;2024-03-02T03:55:32;9.60;6.00;3.80
49343;PMS5003;35210;41.606;-87.602;2024-03-02T03:58:00;7.20;7.20;3.80
49343;PMS5003;35210;41.606;-87.602;2024-03-02T04:00:28;8.40;5.20;3.80
49343;PMS5003;35210;41.606;-87.602;2024-03-02T04:02:56;7.80;6.00;3.60
49343;PMS5003;35210;41.606;-87.602;2024-03-02T04:05:26;8.60;5.80;3.40
49343;PMS5003;35210;41.606;-87.602;2024-03-02T04:07:54;5.00;4.00;3.00
49343;PMS5003;35210;41.606;-87.602;2024-03-02T04:10:23;6.60;6.60;3.40
49343;PMS5003;35210;41.606;-87.602;2024-03-02T04:12:51;8.80;7.60;4.00
49343;PMS5003;35210;41.606;-87.602;2024-03-02T04:15:20;5.80;5.20;3.00
49343;PMS5003;35210;41.606;-87.602;2024-03-02T04:17:49;10.20;5.40;3.00
49343;PMS5003;35210;41.606;-87.602;2024-03-02T04:20:17;7.60;7.40;5.00
49343;PMS5003;35210;41.606;-87.602;2024-03-02T04:22:46;8.80;7.60;6.00
49343;PMS5003;35210;41.606;-87.602;2024-03-02T04:25:14;7.00;4.60;4.00
49343;PMS5003;35210;41.606;-87.602;2024-03-02T04:27:43;9.40;8.00;5.20
49343;PMS5003;35210;41.606;-87.602;2024-03-02T04:30:11;8.20;7.60;3.80
49343;PMS5003;35210;41.606;-87.602;2024-03-02T04:32:39;8.60;7.20;4.00
49343;PMS5003;35210;41.606;-87.602;2024-03-02T04:35:11;4.00;4.00;3.00
49343;PMS5003;35210;41.606;-87.602;2024-03-02T04:37:39;9.00;8.60;6.20
49343;PMS5003;35210;41.606;-87.602;2024-03-02T04:40:10;6.80;6.40;4.00
49343;PMS5003;35210;41.606;-87.602;2024-03-02T04:42:41;9.20;8.60;7.00
49343;PMS5003;35210;41.606;-87.602;2024-03-02T04:45:10;8.20;8.20;4.80
49343;PMS5003;35210;41.606;-87.602;2024-03-02T04:47:38;8.60;8.40;7.00
49343;PMS5003;35210;41.606;-87.602;2024-03-02T04:50:07;11.60;10.00;7.60
49343;PMS5003;35210;41.606;-87.602;2024-03-02T04:52:35;9.20;9.20;6.00
49343;PMS5003;35210;41.606;-87.602;2024-03-02T04:55:04;12.00;9.20;7.20
49343;PMS5003;35210;41.606;-87.602;2024-03-02T04:57:56;7.60;7.60;4.60
49343;PMS5003;35210;41.606;-87.602;2024-03-02T05:00:24;9.00;7.00;4.00
49343;PMS5003;35210;41.606;-87.602;2024-03-02T05:02:52;12.00;9.00;6.00
49343;PMS5003;35210;41.606;-87.602;2024-03-02T05:05:20;8.80;7.00;4.00
49343;PMS5003;35210;41.606;-87.602;2024-03-02T05:07:50;6.60;6.00;2.00
49343;PMS5003;35210;41.606;-87.602;2024-03-02T05:10:18;7.60;7.20;4.40
49343;PMS5003;35210;41.606;-87.602;2024-03-02T05:12:46;9.20;4.00;1.20
49343;PMS5003;35210;41.606;-87.602;2024-03-02T05:15:24;12.20;11.60;6.40
49343;PMS5003;35210;41.606;-87.602;2024-03-02T05:17:52;6.60;4.80;2.60
49343;PMS5003;35210;41.606;-87.602;2024-03-02T05:20:22;8.20;8.00;6.00
49343;PMS5003;35210;41.606;-87.602;2024-03-02T05:22:50;10.00;8.00;6.00
49343;PMS5003;35210;41.606;-87.602;2024-03-02T05:25:18;17.00;9.20;7.40
49343;PMS5003;35210;41.606;-87.602;2024-03-02T05:27:48;7.00;7.00;3.40
49343;PMS5003;35210;41.606;-87.602;2024-03-02T05:30:16;13.20;12.00;8.00
49343;PMS5003;35210;41.606;-87.602;2024-03-02T05:32:46;17.20;15.20;11.00
49343;PMS5003;35210;41.606;-87.602;2024-03-02T05:35:14;13.00;12.00;8.40
49343;PMS5003;35210;41.606;-87.602;2024-03-02T05:37:42;12.80;11.20;8.00
49343;PMS5003;35210;41.606;-87.602;2024-03-02T05:40:10;9.80;9.80;8.00
49343;PMS5003;35210;41.606;-87.602;2024-03-02T05:42:38;11.80;9.80;7.20
49343;PMS5003;35210;41.606;-87.602;2024-03-02T05:45:07;11.80;11.00;7.00
49343;PMS5003;35210;41.606;-87.602;2024-03-02T05:47:35;9.40;9.40;7.20
49343;PMS5003;35210;41.606;-87.602;2024-03-02T05:50:05;8.00;7.40;6.20
49343;PMS5003;35210;41.606;-87.602;2024-03-02T05:52:34;13.20;11.20;7.00
49343;PMS5003;35210;41.606;-87.602;2024-03-02T05:55:02;8.00;8.00;4.00
49343;PMS5003;35210;41.606;-87.602;2024-03-02T05:57:31;11.20;9.20;6.60
49343;PMS5003;35210;41.606;-87.602;2024-03-02T06:00:13;13.20;10.00;7.20
49343;PMS5003;35210;41.606;-87.602;2024-03-02T06:02:42;11.00;9.00;7.60
49343;PMS5003;35210;41.606;-87.602;2024-03-02T06:05:12;13.00;10.00;7.80
49343;PMS5003;35210;41.606;-87.602;2024-03-02T06:07:40;7.60;6.40;3.40
49343;PMS5003;35210;41.606;-87.602;2024-03-02T06:10:09;12.20;9.00;8.00
49343;PMS5003;35210;41.606;-87.602;2024-03-02T06:12:37;9.60;9.00;7.00
49343;PMS5003;35210;41.606;-87.602;2024-03-02T06:15:05;5.40;4.80;3.00
49343;PMS5003;35210;41.606;-87.602;2024-03-02T06:17:35;13.40;13.40;7.80
49343;PMS5003;35210;41.606;-87.602;2024-03-02T06:20:03;14.80;11.60;8.00
49343;PMS5003;35210;41.606;-87.602;2024-03-02T06:22:35;17.00;12.80;9.40
49343;PMS5003;35210;41.606;-87.602;2024-03-02T06:25:04;15.00;13.33;9.00
49343;PMS5003;35210;41.606;-87.602;2024-03-02T06:27:33;14.20;13.00;8.20
49343;PMS5003;35210;41.606;-87.602;2024-03-02T06:30:01;18.00;14.20;9.00
49343;PMS5003;35210;41.606;-87.602;2024-03-02T06:32:30;14.40;11.80;8.00
49343;PMS5003;35210;41.606;-87.602;2024-03-02T06:34:58;11.20;9.80;6.60
49343;PMS5003;35210;41.606;-87.602;2024-03-02T06:37:26;14.60;13.00;9.00
49343;PMS5003;35210;41.606;-87.602;2024-03-02T06:39:56;17.60;16.40;10.00
49343;PMS5003;35210;41.606;-87.602;2024-03-02T06:42:24;15.00;12.60;8.60
49343;PMS5003;35210;41.606;-87.602;2024-03-02T06:44:52;17.40;16.60;10.20
49343;PMS5003;35210;41.606;-87.602;2024-03-02T06:47:21;14.80;13.60;10.00
49343;PMS5003;35210;41.606;-87.602;2024-03-02T06:49:49;13.60;11.80;8.80
49343;PMS5003;35210;41.606;-87.602;2024-03-02T06:52:18;13.00;12.40;8.00
49343;PMS5003;35210;41.606;-87.602;2024-03-02T06:54:48;16.40;10.00;7.40
49343;PMS5003;35210;41.606;-87.602;2024-03-02T06:57:18;15.40;11.80;7.00
49343;PMS5003;35210;41.606;-87.602;2024-03-02T06:59:46;13.20;12.00;8.00
49343;PMS5003;35210;41.606;-87.602;2024-03-02T07:02:16;13.40;12.60;9.20
49343;PMS5003;35210;41.606;-87.602;2024-03-02T07:04:44;15.40;12.20;8.60
49343;PMS5003;35210;41.606;-87.602;2024-03-02T07:07:12;13.00;12.00;8.60
49343;PMS5003;35210;41.606;-87.602;2024-03-02T07:09:41;16.60;14.40;11.00
49343;PMS5003;35210;41.606;-87.602;2024-03-02T07:12:09;14.80;12.80;8.60
49343;PMS5003;35210;41.606;-87.602;2024-03-02T07:14:38;13.00;10.40;7.80
49343;PMS5003;35210;41.606;-87.602;2024-03-02T07:17:50;15.60;12.00;8.80
49343;PMS5003;35210;41.606;-87.602;2024-03-02T07:20:18;16.40;13.40;8.80
49343;PMS5003;35210;41.606;-87.602;2024-03-02T07:22:47;17.60;16.20;10.20
49343;PMS5003;35210;41.606;-87.602;2024-03-02T07:25:15;13.40;11.60;7.80
49343;PMS5003;35210;41.606;-87.602;2024-03-02T07:27:43;18.20;13.40;7.80
49343;PMS5003;35210;41.606;-87.602;2024-03-02T07:30:15;18.60;11.80;8.80
49343;PMS5003;35210;41.606;-87.602;2024-03-02T07:32:43;17.20;14.60;11.20
49343;PMS5003;35210;41.606;-87.602;2024-03-02T07:35:12;16.40;13.00;11.00
49343;PMS5003;35210;41.606;-87.602;2024-03-02T07:37:40;14.20;13.00;9.40
49343;PMS5003;35210;41.606;-87.602;2024-03-02T07:40:09;18.80;15.20;12.00
49343;PMS5003;35210;41.606;-87.602;2024-03-02T07:42:39;19.60;17.60;11.00
49343;PMS5003;35210;41.606;-87.602;2024-03-02T07:45:08;23.20;20.20;13.00
49343;PMS5003;35210;41.606;-87.602;2024-03-02T07:47:38;25.20;19.00;12.80
49343;PMS5003;35210;41.606;-87.602;2024-03-02T07:50:06;24.80;21.20;12.20
49343;PMS5003;35210;41.606;-87.602;2024-03-02T07:52:35;21.60;20.00;14.00
49343;PMS5003;35210;41.606;-87.602;2024-03-02T07:55:03;25.80;20.60;12.20
49343;PMS5003;35210;41.606;-87.602;2024-03-02T07:57:32;16.00;13.60;8.00
49343;PMS5003;35210;41.606;-87.602;2024-03-02T08:00:00;30.40;24.20;14.40
49343;PMS5003;35210;41.606;-87.602;2024-03-02T08:02:28;27.20;22.00;13.60
49343;PMS5003;35210;41.606;-87.602;2024-03-02T08:04:58;23.20;20.60;14.80
49343;PMS5003;35210;41.606;-87.602;2024-03-02T08:07:27;18.00;17.60;9.00
49343;PMS5003;35210;41.606;-87.602;2024-03-02T08:09:55;31.20;22.20;14.60
49343;PMS5003;35210;41.606;-87.602;2024-03-02T08:12:23;29.00;25.00;15.00
49343;PMS5003;35210;41.606;-87.602;2024-03-02T08:14:51;24.00;21.20;14.80
49343;PMS5003;35210;41.606;-87.602;2024-03-02T08:17:19;26.20;23.60;15.00
49343;PMS5003;35210;41.606;-87.602;2024-03-02T08:19:48;24.80;23.80;14.00
49343;PMS5003;35210;41.606;-87.602;2024-03-02T08:22:17;27.00;21.60;13.40
49343;PMS5003;35210;41.606;-87.602;2024-03-02T08:24:45;18.60;15.20;9.60
49343;PMS5003;35210;41.606;-87.602;2024-03-02T08:27:13;29.20;25.40;15.00
49343;PMS5003;35210;41.606;-87.602;2024-03-02T08:29:41;26.60;25.40;15.80
49343;PMS5003;35210;41.606;-87.602;2024-03-02T08:32:10;29.00;27.60;14.40
49343;PMS5003;35210;41.606;-87.602;2024-03-02T08:34:38;26.40;23.40;12.80
49343;PMS5003;35210;41.606;-87.602;2024-03-02T08:37:06;32.40;24.00;14.20
49343;PMS5003;35210;41.606;-87.602;2024-03-02T08:39:36;33.20;27.80;20.00
49343;PMS5003;35210;41.606;-87.602;2024-03-02T08:42:04;31.20;25.20;15.40
49343;PMS5003;35210;41.606;-87.602;2024-03-02T08:44:32;28.40;25.60;18.60
49343;PMS5003;35210;41.606;-87.602;2024-03-02T08:47:01;30.60;25.40;17.00
49343;PMS5003;35210;41.606;-87.602;2024-03-02T08:49:29;28.20;25.20;15.20
49343;PMS5003;35210;41.606;-87.602;2024-03-02T08:51:57;26.00;25.60;17.80
49343;PMS5003;35210;41.606;-87.602;2024-03-02T08:54:25;29.40;23.00;17.00
49343;PMS5003;35210;41.606;-87.602;2024-03-02T08:56:55;29.40;27.40;19.00
49343;PMS5003;35210;41.606;-87.602;2024-03-02T08:59:23;29.40;26.80;17.20
49343;PMS5003;35210;41.606;-87.602;2024-03-02T09:01:53;42.80;27.80;19.00
49343;PMS5003;35210;41.606;-87.602;2024-03-02T09:04:21;29.40;24.60;16.60
49343;PMS5003;35210;41.606;-87.602;2024-03-02T09:06:49;29.40;25.80;17.20
49343;PMS5003;35210;41.606;-87.602;2024-03-02T09:09:17;34.20;29.00;18.00
49343;PMS5003;35210;41.606;-87.602;2024-03-02T09:11:45;36.00;30.40;18.60
49343;PMS5003;35210;41.606;-87.602;2024-03-02T09:14:15;35.20;29.60;18.60
49343;PMS5003;35210;41.606;-87.602;2024-03-02T09:16:43;37.00;32.40;21.00
49343;PMS5003;35210;41.606;-87.602;2024-03-02T09:19:11;37.40;31.40;18.00
49343;PMS5003;35210;41.606;-87.602;2024-03-02T09:21:39;31.00;27.80;18.60
49343;PMS5003;35210;41.606;-87.602;2024-03-02T09:24:09;35.00;29.00;19.00
49343;PMS5003;35210;41.606;-87.602;2024-03-02T09:26:38;28.00;28.00;20.20
49343;PMS5003;35210;41.606;-87.602;2024-03-02T09:29:06;33.40;29.80;19.40
49343;PMS5003;35210;41.606;-87.602;2024-03-02T09:31:40;32.60;29.80;19.80
49343;PMS5003;35210;41.606;-87.602;2024-03-02T09:34:08;33.80;29.60;20.20
49343;PMS5003;35210;41.606;-87.602;2024-03-02T09:36:37;30.40;28.40;17.60
49343;PMS5003;35210;41.606;-87.602;2024-03-02T09:39:07;33.20;31.20;20.20
49343;PMS5003;35210;41.606;-87.602;2024-03-02T09:41:36;32.60;28.40;19.20
49343;PMS5003;35210;41.606;-87.602;2024-03-02T09:44:07;34.80;29.40;18.80
49343;PMS5003;35210;41.606;-87.602;2024-03-02T09:46:36;33.20;26.60;15.20
49343;PMS5003;35210;41.606;-87.602;2024-03-02T09:49:07;38.80;33.60;22.00
49343;PMS5003;35210;41.606;-87.602;2024-03-02T09:51:35;29.60;25.60;19.40
49343;PMS5003;35210;41.606;-87.602;2024-03-02T09:54:06;32.60;29.80;22.20
49343;PMS5003;35210;41.606;-87.602;2024-03-02T09:56:35;34.40;31.20;22.40
49343;PMS5003;35210;41.606;-87.602;2024-03-02T09:59:06;34.20;31.00;19.80
49343;PMS5003;35210;41.606;-87.602;2024-03-02T10:01:34;34.80;31.60;20.40
49343;PMS5003;35210;41.606;-87.602;2024-03-02T10:04:02;34.40;26.20;18.20
49343;PMS5003;35210;41.606;-87.602;2024-03-02T10:06:34;47.20;34.00;23.00
49343;PMS5003;35210;41.606;-87.602;2024-03-02T10:09:02;34.60;31.40;20.00
49343;PMS5003;35210;41.606;-87.602;2024-03-02T10:11:31;39.40;33.00;22.00
49343;PMS5003;35210;41.606;-87.602;2024-03-02T10:14:06;39.60;35.80;22.00
49343;PMS5003;35210;41.606;-87.602;2024-03-02T10:16:35;35.00;31.40;18.20
49343;PMS5003;35210;41.606;-87.602;2024-03-02T10:21:53;42.80;32.20;22.40
49343;PMS5003;35210;41.606;-87.602;2024-03-02T10:24:23;29.40;27.80;18.00
49343;PMS5003;35210;41.606;-87.602;2024-03-02T10:26:52;39.00;29.20;19.60
49343;PMS5003;35210;41.606;-87.602;2024-03-02T10:29:22;36.40;31.20;22.00
49343;PMS5003;35210;41.606;-87.602;2024-03-02T10:31:53;41.60;36.60;23.80
49343;PMS5003;35210;41.606;-87.602;2024-03-02T10:34:21;37.80;32.40;19.60
49343;PMS5003;35210;41.606;-87.602;2024-03-02T10:36:49;40.60;36.80;21.80
49343;PMS5003;35210;41.606;-87.602;2024-03-02T10:39:19;38.20;31.20;20.60
49343;PMS5003;35210;41.606;-87.602;2024-03-02T10:41:49;35.40;30.20;21.60
49343;PMS5003;35210;41.606;-87.602;2024-03-02T10:44:20;43.60;37.20;25.00
49343;PMS5003;35210;41.606;-87.602;2024-03-02T10:46:50;42.20;39.20;25.00
49343;PMS5003;35210;41.606;-87.602;2024-03-02T10:49:20;40.40;35.00;22.80
49343;PMS5003;35210;41.606;-87.602;2024-03-02T10:51:50;37.20;31.80;21.40
49343;PMS5003;35210;41.606;-87.602;2024-03-02T10:54:20;40.00;34.00;21.20
49343;PMS5003;35210;41.606;-87.602;2024-03-02T10:56:52;44.00;37.00;22.80
49343;PMS5003;35210;41.606;-87.602;2024-03-02T10:59:24;44.40;36.00;22.00
49343;PMS5003;35210;41.606;-87.602;2024-03-02T11:01:56;41.40;37.20;23.20
49343;PMS5003;35210;41.606;-87.602;2024-03-02T11:04:25;48.60;39.00;22.40
49343;PMS5003;35210;41.606;-87.602;2024-03-02T11:06:56;35.40;32.40;22.20
49343;PMS5003;35210;41.606;-87.602;2024-03-02T11:09:29;42.20;37.00;23.40
49343;PMS5003;35210;41.606;-87.602;2024-03-02T11:12:02;46.20;35.20;23.00
49343;PMS5003;35210;41.606;-87.602;2024-03-02T11:14:33;37.60;31.60;21.80
49343;PMS5003;35210;41.606;-87.602;2024-03-02T11:17:04;35.80;28.00;15.60
49343;PMS5003;35210;41.606;-87.602;2024-03-02T11:19:33;44.40;32.80;22.40
49343;PMS5003;35210;41.606;-87.602;2024-03-02T11:22:02;48.40;41.40;25.00
49343;PMS5003;35210;41.606;-87.602;2024-03-02T11:24:33;30.20;27.00;17.60
49343;PMS5003;35210;41.606;-87.602;2024-03-02T11:27:03;47.60;38.00;25.80
49343;PMS5003;35210;41.606;-87.602;2024-03-02T11:29:44;34.40;29.00;16.80
49343;PMS5003;35210;41.606;-87.602;2024-03-02T11:32:20;46.60;39.20;22.00
49343;PMS5003;35210;41.606;-87.602;2024-03-02T11:34:49;41.60;38.40;24.80
49343;PMS5003;35210;41.606;-87.602;2024-03-02T11:37:18;35.40;34.60;20.20
49343;PMS5003;35210;41.606;-87.602;2024-03-02T11:39:49;43.80;37.00;24.20
49343;PMS5003;35210;41.606;-87.602;2024-03-02T11:42:18;32.40;26.80;19.80
49343;PMS5003;35210;41.606;-87.602;2024-03-02T11:44:46;37.20;35.00;22.20
49343;PMS5003;35210;41.606;-87.602;2024-03-02T11:47:16;46.00;37.20;23.80
49343;PMS5003;35210;41.606;-87.602;2024-03-02T11:49:45;42.20;35.20;22.80
49343;PMS5003;35210;41.606;-87.602;2024-03-02T11:52:15;41.80;32.20;22.20
49343;PMS5003;35210;41.606;-87.602;2024-03-02T11:54:45;40.80;35.00;21.80
49343;PMS5003;35210;41.606;-87.602;2024-03-02T11:57:16;41.00;35.40;23.60
49343;PMS5003;35210;41.606;-87.602;2024-03-02T11:59:45;41.80;36.80;24.20
49343;PMS5003;35210;41.606;-87.602;2024-03-02T12:02:15;44.80;37.00;22.40
49343;PMS5003;35210;41.606;-87.602;2024-03-02T12:04:44;41.60;35.40;21.60
49343;PMS5003;35210;41.606;-87.602;2024-03-02T12:07:18;42.00;36.80;21.40
49343;PMS5003;35210;41.606;-87.602;2024-03-02T12:09:47;32.60;29.20;17.00
49343;PMS5003;35210;41.606;-87.602;2024-03-02T12:12:17;42.40;34.20;21.80
49343;PMS5003;35210;41.606;-87.602;2024-03-02T12:14:51;38.60;30.40;21.00
49343;PMS5003;35210;41.606;-87.602;2024-03-02T12:17:21;39.60;35.20;21.80
49343;PMS5003;35210;41.606;-87.602;2024-03-02T12:19:49;42.80;36.80;20.40
49343;PMS5003;35210;41.606;-87.602;2024-03-02T12:22:17;36.80;31.60;20.80
49343;PMS5003;35210;41.606;-87.602;2024-03-02T12:24:45;46.40;40.60;23.80
49343;PMS5003;35210;41.606;-87.602;2024-03-02T12:27:13;36.60;32.00;20.80
49343;PMS5003;35210;41.606;-87.602;2024-03-02T12:29:45;45.20;38.20;25.00
49343;PMS5003;35210;41.606;-87.602;2024-03-02T12:32:13;37.60;34.00;25.00
49343;PMS5003;35210;41.606;-87.602;2024-03-02T12:34:42;43.60;37.20;22.60
49343;PMS5003;35210;41.606;-87.602;2024-03-02T12:37:13;45.00;38.60;26.20
49343;PMS5003;35210;41.606;-87.602;2024-03-02T12:39:44;36.60;30.60;21.60
49343;PMS5003;35210;41.606;-87.602;2024-03-02T12:42:13;36.80;30.00;20.00
49343;PMS5003;35210;41.606;-87.602;2024-03-02T12:44:41;40.40;36.00;22.80
49343;PMS5003;35210;41.606;-87.602;2024-03-02T12:47:10;40.20;34.00;24.60
49343;PMS5003;35210;41.606;-87.602;2024-03-02T12:49:39;45.60;39.60;24.60
49343;PMS5003;35210;41.606;-87.602;2024-03-02T12:52:08;61.25;47.75;29.25
49343;PMS5003;35210;41.606;-87.602;2024-03-02T12:54:38;55.60;44.20;28.60
49343;PMS5003;35210;41.606;-87.602;2024-03-02T12:57:07;52.40;40.80;26.80
49343;PMS5003;35210;41.606;-87.602;2024-03-02T12:59:35;60.75;46.00;27.75
49343;PMS5003;35210;41.606;-87.602;2024-03-02T13:02:03;64.25;48.50;31.00
49343;PMS5003;35210;41.606;-87.602;2024-03-02T13:04:32;69.25;54.50;34.25
49343;PMS5003;35210;41.606;-87.602;2024-03-02T13:07:00;69.25;55.00;34.75
49343;PMS5003;35210;41.606;-87.602;2024-03-02T13:09:29;62.25;51.00;34.00
49343;PMS5003;35210;41.606;-87.602;2024-03-02T13:11:59;64.00;51.75;32.50
49343;PMS5003;35210;41.606;-87.602;2024-03-02T13:14:27;64.00;51.25;32.00
49343;PMS5003;35210;41.606;-87.602;2024-03-02T13:16:55;56.25;47.50;29.50
49343;PMS5003;35210;41.606;-87.602;2024-03-02T13:19:26;62.50;48.25;28.25
49343;PMS5003;35210;41.606;-87.602;2024-03-02T13:21:57;67.25;52.50;30.25
49343;PMS5003;35210;41.606;-87.602;2024-03-02T13:24:27;62.75;47.75;30.25
49343;PMS5003;35210;41.606;-87.602;2024-03-02T13:26:55;59.60;42.00;26.00
49343;PMS5003;35210;41.606;-87.602;2024-03-02T13:29:25;59.50;45.25;26.00
49343;PMS5003;35210;41.606;-87.602;2024-03-02T13:31:53;65.50;46.50;28.75
49343;PMS5003;35210;41.606;-87.602;2024-03-02T13:34:23;63.00;45.00;28.00
49343;PMS5003;35210;41.606;-87.602;2024-03-02T13:36:51;60.00;46.00;27.25
49343;PMS5003;35210;41.606;-87.602;2024-03-02T13:39:21;58.00;44.60;26.00
49343;PMS5003;35210;41.606;-87.602;2024-03-02T13:41:49;54.25;41.50;28.25
49343;PMS5003;35210;41.606;-87.602;2024-03-02T13:44:23;51.40;43.40;27.60
49343;PMS5003;35210;41.606;-87.602;2024-03-02T13:46:51;59.00;45.50;29.00
49343;PMS5003;35210;41.606;-87.602;2024-03-02T13:49:19;51.25;43.50;26.25
49343;PMS5003;35210;41.606;-87.602;2024-03-02T13:51:47;57.75;44.25;28.25